ENML Airport Information

Runway Information
Runway 07 Length 6922 ft width 148 ft Elevation 10 ft Threshold N/A Heading 71
Runway 25 Length 6922 ft Width 148 ft Elevation 10 ft Threshold N/A Heading 251
Airport Frequencies
Type AFIS Name MOLDE INFO Frequency 119.95 MHZ
Airport Navaids
Type NDB Name Tautra Frequency 393 KHZ
Airport Weather Information & NOTAM
ADDS - METARS form results

(1219 UTC 30 January 2023)
Data provider http://aviationweather.gov/metar/data/
 
METAR text: ENML 301150Z 29013KT 260V330 9999 -SHSNRAGS FEW016 SCT024CB SCT050 03/M02 Q0995
Conditions at: ENML (MOLDE/ARO , NO) observed 1150 UTC 30 January 2023
Temperature: 3.0°C (37°F)
Dewpoint: -2.0°C (28°F) [RH = 70%]
Pressure (altimeter): 29.38 inches Hg (995.0 mb)
Winds: from the WNW (290 degrees) at 15 MPH (13 knots; 6.7 m/s)
Visibility: 6 or more miles (10+ km)
Ceiling: at least 12,000 feet AGL
Clouds: few clouds at 1600 feet AGL
scattered clouds at 2400 feet AGL
scattered clouds at 5000 feet AGL
Weather: -SHSN -SHRA -SHG  (light snow showers, light rain showers, unknown weather)

METAR text: ENML 301120Z 29012KT 260V360 9999 VCSH FEW012 SCT022CB SCT050 04/M03 Q0995
Conditions at: ENML (MOLDE/ARO , NO) observed 1120 UTC 30 January 2023
Temperature: 4.0°C (39°F)
Dewpoint: -3.0°C (27°F) [RH = 60%]
Pressure (altimeter): 29.38 inches Hg (995.0 mb)
Winds: from the WNW (290 degrees) at 14 MPH (12 knots; 6.2 m/s)
Visibility: 6 or more miles (10+ km)
Ceiling: at least 12,000 feet AGL
Clouds: few clouds at 1200 feet AGL
scattered clouds at 2200 feet AGL
scattered clouds at 5000 feet AGL
Weather: VCSH  (showers in vicinity)

Forecast for: ENML (MOLDE/ARO , NO)
Text: TAF ENML 301100Z 3012/3021 30012KT 9999 -SHRASN FEW015CB BKN030
Forecast period: 1200 to 2100 UTC 30 January 2023
Forecast type: FROM: standard forecast or significant change
Winds: from the WNW (300 degrees) at 14 MPH (12 knots; 6.2 m/s)
Visibility: 6 or more miles (10+ km)
Ceiling: 3000 feet AGL
Clouds: few clouds at 1500 feet AGL
broken clouds at 3000 feet AGL
Weather: -SHRA -SHSN  (light rain showers, light snow showers)
Text: TEMPO 3012/3021 29018G30KT 3000 SHSNRAGS VV012
Forecast period: 1200 to 2100 UTC 30 January 2023
Forecast type: TEMPORARY: The following changes expected for less than half the time period
Winds: from the WNW (290 degrees) at 21 MPH (18 knots; 9.3 m/s)
gusting to 34 MPH (30 knots; 15.4 m/s)
Visibility: 1.86 miles (2.99 km)
Ceiling: indefinite ceiling with vertical visibility of 1200 feet AGL
Clouds: obscured sky
Weather: SHSN SHRA SHGS  (snow showers, rain showers, small hail or graupel showers)